РУС

ENG

 
  Pireps - S7
 

Рейс SBI2157

  • Выполнял: Danil Belov
  • Аэропорт отправления: Domodedovo Airport (UUDD)
  • Аэропорт назначения: (URML)
  • Тип ВС: A320-214 (VQ-BPL)
  • Время полёта: 02.34
  • Дата полёта: 14.02.2021
  • Маршрут: FV R11 US L169 ST N39 UP B945 PERAT
  • Статус: Одобрен

Детали полёта
Gross Revenue:
(138 load / $ 200.00 per unit
$ 27, 600.00
Fuel Cost:
(6213 fuel used @ 5.1 / unit)
$ 31, 686.30


Дополнительная информация о полёте:

Лог

Aircraft Used in flight is Aerosoft Airbus A320Neo S7 VQ-BCF
13:23 Boarding
13:23 Engine 1 Started
13:23 Engine 2 Started
13:23 Beacon Lights ON at 600 AGL
13:23 Brakes are On
13:27 Navigation Lights ON at 600 AGL
13:35 Brakes are Released
13:35 Pushing back
13:38 Taxi Lights ON at 600 AGL
13:38Flaps 1 Selected at 600ft and 0kts
13:38Flaps 2 Selected at 600ft and 0kts
13:38Flaps 3 Selected at 600ft and 0kts
13:44 Landing Lights ON at 600 AGL
13:45 You Took off @ 170 Knots and Flaps at Position 3
Departure Weather
UUDD 141030Z 32007MPS 3200 R32L/1800U -SHSN SCT016CB M14/M18 Q1007 RESHSN R88/490537 TEMPO 1000 SHSN
13:45 Strobe Lights ON at 600 AGL
13:45 Landing Gear Up @ 178 Knots and 650 Feet
13:45 Taxi Lights OFF at 660 AGL
13:45Flaps 2 Selected at 1080ft and 198kts
13:45Flaps 1 Selected at 1330ft and 210kts
13:46 You exceeded maximum bank angle
13:46Flaps Retracted at 4600ft and 208kts
13:51 Below 10000 feet you are not allowed to go over 250 knots
14:19 TOC Reached
15:47Flaps 1 Selected at 3270ft and 222kts
15:47 Landing Lights OFF at 3270 AGL
15:48Flaps 2 Selected at 2990ft and 208kts
15:48Flaps 3 Selected at 2990ft and 208kts
15:50Flaps 4 Selected at 2650ft and 176kts
15:50 Landing Gear Down @ 157 Knots and 2570 Feet
15:50Flaps 5 Selected at 2560ft and 155kts
15:54 You Landed @ 132 Knots and with -300 Vertical Speed
Arrival Weather
URML 141000Z 13005MPS 9999 BKN030 06/00 Q1021 R14/01//70 NOSIG RMK QFE766/1021
15:54 Strobe Lights OFF at 30 AGL
15:54Flaps Retracted at 30ft and 10kts
15:55 Landing Lights ON at 30 AGL
15:55 Strobe Lights ON at 30 AGL
15:56 Brakes are On
15:56 Engine 1 Stoped
15:57 Engine 2 Stoped
Pirep logged with S7 Tracking 1.0.0.14



Общая оценка полета : 100%




Route Map



 
 
   
 
Новости

03.09.2020 - Полеты в MFS 2020

Спешим сообщить вам, что теперь наш S7 Pad поддерживается для полетов в новом симуляторе MFS 2020. В разделе Загрузки вы найдете FSUIPC7.rar
Инструкция для запуска прилагается!

   
 
Авторизация






Регистрация

Восстановить пароль?

Мы в соц. сетях

      



   
 





   
 


   
 


Яндекс.Метрика

www.va-s7.ru 2011-2021
Все права защищены.



Минуточку внимания!
Сайт va-s7.ru не является коммерческим проектом. Мы не имеем отношения к торговым маркам "S7" и "Globus" и их представителям.
Эмблемы на сайте являются собственностью соответствующих компаний.

аэронавигационная метеорологическая и любая другая информация с данного ресурса ни в коем случае не должна использоваться для реальных полетов